Hauptseite
METAR-TAF:

METAR-TAF

Flughäfen :

Nevis, Antigua und Barbuda

Breite: 17-12N, Länge: 062-35W, Höhe: 17 m

Beobachtung

Neuester Wetterbericht von vor 3 Stunden und 17 Minuten, um 23:00 UTC
Wind 13 kt aus Ost
Temperatur 27°C
Luftfeuchtigkeit 89%
Luftdruck 1016 hPa
Sichtweite 10 km oder mehr
Aufgelockert bewölkt in der Höhe von 1600 ft
Durchbrochene Bewölkung in der Höhe von 4500 ft
Schauer in der Nähe,

METAR: TKPN 132300Z 08013KT 9999 VCSH SCT016 BKN045 27/25 Q1016

Zeit: 22:17 (02:17 UTC)

Prognose

Neuester Wetterbericht von vor 9 Stunden und 17 Minuten, um 17:00 UTC
Gültige Prognose vom 13 um 18 UTC bis 14 um 18 UTC
Wind 15 kt aus Ost
Sichtweite 10 km oder mehr
Aufgelockert bewölkt in der Höhe von 2000 ft
Wahrscheinlichkeit 40% :
Zeitweise
vom 14 um 06 UTC bis 14 um 16 UTC
Wind 15 kt aus Ost, Böen bis zu 25 kt
Regenschauer,

TAF: TKPN 131700Z 1318/1418 08015KT 9999 SCT020 PROB40 TEMPO 1406/1416 08015G25KT SHRA

Wetterbeobachtungen und Prognosen von mehr als 4000 Flughäfen (METAR und TAF Bericht).

Die verfügbaren Stationen werden durch gelbe und rote Markierungen auf der Karte dargestellt.

Führen Sie die Maus auf sie, um den Namen der Station zu sehen.

Darauf klicken, um die Beobachtung von Wetterbeobachtungen und Prognosen zu sehen.

Um die Karte zu ändern : klicken Sie auf den grünen Tasten mit einem schwarzen Kreuz Zum Vergrößern, auf den grünen Button mit einem Gedankenstrich zu verkleinern, oder auf die grünen Pfeile für benachbarte Karten.


METAR-TAF: